Time;durP1;ratioP1;P1;durP2;ratioP2;P2;SDS_P1;SDS_P2;PMS_P1;PMS_P2;Temp;Humidity;BMP_temperature;BMP_pressure;BME280_temperature;BME280_humidity;BME280_pressure;Samples;Min_cycle;Max_cycle;Signal;HPM_P1;HPM_P2
2024/01/31 00:00:52;;;;;;;2.88;1.13;;;6.50;99.90;;;;;;4897648;29;20045;-79
2024/01/31 00:03:19;;;;;;;5.07;1.63;;;6.60;99.90;;;;;;4896638;29;20051;-79
2024/01/31 00:05:46;;;;;;;2.47;0.80;;;6.60;99.90;;;;;;4880845;29;20433;-79
2024/01/31 00:08:13;;;;;;;3.33;0.90;;;6.60;99.90;;;;;;4877713;29;20053;-79
2024/01/31 00:10:40;;;;;;;3.05;1.00;;;6.60;99.90;;;;;;4892972;29;20442;-79
2024/01/31 00:13:07;;;;;;;2.55;0.82;;;6.60;99.90;;;;;;4881181;29;20049;-80
2024/01/31 00:15:34;;;;;;;2.50;1.15;;;6.60;99.90;;;;;;4881050;29;20131;-79
2024/01/31 00:18:01;;;;;;;4.90;1.10;;;6.60;99.90;;;;;;4881277;29;20053;-78
2024/01/31 00:20:30;;;;;;;2.22;0.75;;;6.60;99.90;;;;;;4896366;29;20520;-78
2024/01/31 00:22:56;;;;;;;1.90;0.70;;;6.60;99.90;;;;;;4896422;29;20093;-78
2024/01/31 00:25:23;;;;;;;2.65;0.80;;;6.60;99.90;;;;;;4897656;29;20076;-78
2024/01/31 00:27:51;;;;;;;5.30;0.80;;;6.60;99.90;;;;;;4881253;29;20048;-78
2024/01/31 00:30:18;;;;;;;4.80;1.00;;;6.60;99.90;;;;;;4884227;29;20109;-78
2024/01/31 00:32:45;;;;;;;2.47;0.90;;;6.60;99.90;;;;;;4899906;29;20049;-79
2024/01/31 00:35:12;;;;;;;2.72;0.88;;;6.60;99.90;;;;;;4884434;29;20147;-79
2024/01/31 00:37:40;;;;;;;3.30;0.70;;;6.60;99.90;;;;;;4866165;29;20479;-78
2024/01/31 00:40:09;;;;;;;2.47;0.75;;;6.60;99.90;;;;;;4897935;29;20052;-80
2024/01/31 00:42:41;;;;;;;2.92;0.95;;;6.60;99.90;;;;;;4881234;29;20059;-79
2024/01/31 00:45:09;;;;;;;2.35;0.85;;;6.60;99.90;;;;;;4865609;29;20044;-79
2024/01/31 00:47:36;;;;;;;3.90;1.10;;;6.60;99.90;;;;;;4868609;29;20482;-79
2024/01/31 00:50:04;;;;;;;5.85;1.50;;;6.50;99.90;;;;;;4899356;29;20109;-79
2024/01/31 00:52:33;;;;;;;3.80;1.05;;;6.50;99.90;;;;;;4899794;29;20123;-79
2024/01/31 00:55:00;;;;;;;3.65;1.08;;;6.50;99.90;;;;;;4900604;29;20052;-79
2024/01/31 00:57:27;;;;;;;3.45;0.82;;;6.50;99.90;;;;;;4880587;29;20187;-79
2024/01/31 00:59:55;;;;;;;2.72;0.60;;;6.50;99.90;;;;;;4876341;29;20053;-78
2024/01/31 01:02:22;;;;;;;1.48;0.43;;;6.50;99.90;;;;;;4899088;29;20411;-79
2024/01/31 01:04:49;;;;;;;1.33;0.55;;;6.50;99.90;;;;;;4899385;29;20049;-79
2024/01/31 01:07:16;;;;;;;2.40;0.50;;;6.50;99.90;;;;;;4899104;29;20093;-79
2024/01/31 01:09:43;;;;;;;2.63;0.60;;;6.60;99.90;;;;;;4883588;29;20059;-79
2024/01/31 01:12:10;;;;;;;2.25;0.57;;;6.60;99.90;;;;;;4883529;29;20071;-79
2024/01/31 01:14:37;;;;;;;1.90;0.75;;;6.60;99.90;;;;;;4883685;29;20054;-79
2024/01/31 01:17:04;;;;;;;2.85;0.68;;;6.50;99.90;;;;;;4864976;29;20049;-79
2024/01/31 01:19:31;;;;;;;1.85;0.70;;;6.60;99.90;;;;;;4886642;29;20056;-79
2024/01/31 01:22:00;;;;;;;5.28;0.65;;;6.50;99.90;;;;;;4898985;29;20063;-79
2024/01/31 01:24:27;;;;;;;4.60;0.80;;;6.50;99.90;;;;;;4883774;29;20041;-79
2024/01/31 01:26:54;;;;;;;2.67;0.57;;;6.50;99.90;;;;;;4871825;29;20470;-79
2024/01/31 01:29:21;;;;;;;5.95;0.70;;;6.50;99.90;;;;;;4892074;29;20553;-79
2024/01/31 01:31:48;;;;;;;1.60;0.55;;;6.50;99.90;;;;;;4898855;29;20056;-79
2024/01/31 01:34:15;;;;;;;2.92;0.50;;;6.50;99.90;;;;;;4898946;29;20055;-79
2024/01/31 01:36:42;;;;;;;1.33;0.40;;;6.50;99.90;;;;;;4898983;29;20052;-78
2024/01/31 01:39:09;;;;;;;2.17;0.40;;;6.50;99.90;;;;;;4900554;29;20108;-78
2024/01/31 01:41:39;;;;;;;2.00;0.40;;;6.50;99.90;;;;;;4883833;29;20100;-79
2024/01/31 01:44:06;;;;;;;3.38;0.52;;;6.50;99.90;;;;;;4898908;29;20080;-79
2024/01/31 01:46:35;;;;;;;2.45;0.47;;;6.50;99.90;;;;;;4898502;29;20040;-79
2024/01/31 01:49:03;;;;;;;0.95;0.40;;;6.50;99.90;;;;;;4898442;29;20044;-79
2024/01/31 01:51:30;;;;;;;1.00;0.40;;;6.50;99.90;;;;;;4882862;29;20056;-79
2024/01/31 01:53:57;;;;;;;0.77;0.20;;;6.60;99.90;;;;;;4899555;29;20040;-79
2024/01/31 01:56:25;;;;;;;0.82;0.30;;;6.60;99.90;;;;;;4899519;29;20056;-80
2024/01/31 01:58:53;;;;;;;0.68;0.17;;;6.50;99.90;;;;;;4898143;29;20490;-79
2024/01/31 02:01:21;;;;;;;4.90;0.40;;;6.60;99.90;;;;;;4882959;29;20454;-79
2024/01/31 02:03:54;;;;;;;2.17;0.50;;;6.60;99.90;;;;;;4881208;29;20084;-79
2024/01/31 02:06:23;;;;;;;1.45;0.25;;;6.60;99.90;;;;;;4882477;29;20418;-79
2024/01/31 02:08:51;;;;;;;1.77;0.30;;;6.60;99.90;;;;;;4897761;29;20110;-79
2024/01/31 02:11:18;;;;;;;0.63;0.30;;;6.60;99.90;;;;;;4899323;29;20044;-78
2024/01/31 02:13:45;;;;;;;1.42;0.30;;;6.60;99.90;;;;;;4898107;29;20053;-78
2024/01/31 02:16:13;;;;;;;1.65;0.20;;;6.60;99.90;;;;;;4882678;29;20448;-79
2024/01/31 02:18:40;;;;;;;1.00;0.20;;;6.60;99.90;;;;;;4879463;29;20087;-80
2024/01/31 02:21:07;;;;;;;1.48;0.40;;;6.60;99.90;;;;;;4897762;29;20080;-78
2024/01/31 02:23:34;;;;;;;3.20;0.30;;;6.60;99.90;;;;;;4897781;29;20045;-78
2024/01/31 02:26:01;;;;;;;2.03;0.57;;;6.60;99.90;;;;;;4897800;29;20056;-78
2024/01/31 02:28:28;;;;;;;1.77;0.38;;;6.60;99.90;;;;;;4882301;29;20446;-78
2024/01/31 02:30:55;;;;;;;4.55;1.05;;;6.60;99.90;;;;;;4897731;29;20144;-78
2024/01/31 02:33:22;;;;;;;1.60;0.30;;;6.60;99.90;;;;;;4898741;29;20059;-78
2024/01/31 02:35:49;;;;;;;0.98;0.30;;;6.60;99.90;;;;;;4882233;29;20100;-78
2024/01/31 02:38:16;;;;;;;1.40;0.40;;;6.50;99.90;;;;;;4897626;29;20092;-78
2024/01/31 02:40:43;;;;;;;1.90;0.60;;;6.60;99.90;;;;;;4898869;29;20060;-77
2024/01/31 02:43:10;;;;;;;1.65;0.30;;;6.60;99.90;;;;;;4897393;29;20036;-77
2024/01/31 02:45:37;;;;;;;1.08;0.32;;;6.50;99.90;;;;;;4881883;29;20132;-78
2024/01/31 02:48:04;;;;;;;0.63;0.20;;;6.50;99.90;;;;;;4878840;29;20044;-78
2024/01/31 02:50:32;;;;;;;1.27;0.40;;;6.50;99.90;;;;;;4897403;29;20044;-79
2024/01/31 02:53:00;;;;;;;1.27;0.50;;;6.50;99.90;;;;;;4896809;29;20470;-79
2024/01/31 02:55:27;;;;;;;1.02;0.30;;;6.50;99.90;;;;;;4863426;29;20048;-78
2024/01/31 02:57:54;;;;;;;3.72;0.32;;;6.50;99.90;;;;;;4887245;29;20052;-79
2024/01/31 03:00:21;;;;;;;1.50;0.40;;;6.50;99.90;;;;;;4897120;29;20470;-79
2024/01/31 03:02:48;;;;;;;2.47;1.17;;;6.50;99.90;;;;;;4881464;29;20378;-79
2024/01/31 03:05:15;;;;;;;0.73;0.30;;;6.40;99.90;;;;;;4897200;29;20049;-79
2024/01/31 03:07:42;;;;;;;1.77;0.35;;;6.40;99.90;;;;;;4881702;29;20072;-78
2024/01/31 03:10:10;;;;;;;2.20;0.40;;;6.40;99.90;;;;;;4881592;29;20458;-78
2024/01/31 03:12:37;;;;;;;2.90;0.60;;;6.40;99.90;;;;;;4898332;29;20055;-78
2024/01/31 03:15:05;;;;;;;1.60;0.45;;;6.40;99.90;;;;;;4878838;29;20105;-78
2024/01/31 03:17:35;;;;;;;1.33;0.38;;;6.40;99.90;;;;;;4879336;29;20420;-78
2024/01/31 03:20:05;;;;;;;1.27;0.32;;;6.40;99.90;;;;;;4878984;29;20056;-78
2024/01/31 03:22:34;;;;;;;1.65;0.28;;;6.40;99.90;;;;;;4896893;29;20044;-78
2024/01/31 03:25:02;;;;;;;0.35;0.20;;;6.50;99.90;;;;;;4881291;29;20147;-79
2024/01/31 03:27:29;;;;;;;1.58;0.30;;;6.50;99.90;;;;;;4881165;29;20516;-78
2024/01/31 03:30:01;;;;;;;0.73;0.30;;;6.50;99.90;;;;;;4881293;29;20056;-77
2024/01/31 03:32:34;;;;;;;3.17;0.45;;;6.50;99.90;;;;;;4896724;29;20088;-78
2024/01/31 03:35:01;;;;;;;3.30;0.30;;;6.50;99.90;;;;;;4881651;29;20135;-78
2024/01/31 03:37:29;;;;;;;0.40;0.20;;;6.40;99.90;;;;;;4886796;29;20045;-78
2024/01/31 03:39:56;;;;;;;5.75;1.33;;;6.40;99.90;;;;;;4897970;29;20732;-78
2024/01/31 03:42:23;;;;;;;2.85;0.30;;;6.40;99.90;;;;;;4881077;29;20045;-78
2024/01/31 03:44:50;;;;;;;0.95;0.30;;;6.40;99.90;;;;;;4896870;29;20055;-79
2024/01/31 03:47:17;;;;;;;1.25;0.40;;;6.40;99.90;;;;;;4896920;29;20044;-79
2024/01/31 03:49:45;;;;;;;1.42;0.43;;;6.40;99.90;;;;;;4896771;29;20438;-79
2024/01/31 03:52:13;;;;;;;1.23;0.20;;;6.40;99.90;;;;;;4897712;29;20501;-79
2024/01/31 03:54:40;;;;;;;1.10;0.40;;;6.40;99.90;;;;;;4896766;29;20072;-79
2024/01/31 03:57:07;;;;;;;1.02;0.30;;;6.40;99.90;;;;;;4896437;29;20053;-79
2024/01/31 03:59:34;;;;;;;1.88;0.40;;;6.40;99.90;;;;;;4865909;29;20057;-79
2024/01/31 04:02:05;;;;;;;1.23;0.60;;;6.40;99.90;;;;;;4896481;29;20058;-79
2024/01/31 04:04:32;;;;;;;1.17;0.40;;;6.40;99.90;;;;;;4898973;29;20072;-78
2024/01/31 04:06:59;;;;;;;2.70;0.45;;;6.40;99.90;;;;;;4884840;29;20052;-79
2024/01/31 04:09:26;;;;;;;2.72;0.30;;;6.40;99.90;;;;;;4900226;29;20104;-79
2024/01/31 04:11:53;;;;;;;1.10;0.30;;;6.40;99.90;;;;;;4881915;29;20049;-78
2024/01/31 04:14:20;;;;;;;3.13;0.50;;;6.40;99.90;;;;;;4900996;29;20044;-79
2024/01/31 04:16:48;;;;;;;1.65;0.77;;;6.40;99.90;;;;;;4900782;29;20049;-79
2024/01/31 04:19:15;;;;;;;1.25;0.30;;;6.40;99.90;;;;;;4884841;29;20045;-79
2024/01/31 04:21:42;;;;;;;1.00;0.30;;;6.40;99.90;;;;;;4899988;29;20049;-79
2024/01/31 04:24:09;;;;;;;0.70;0.20;;;6.40;99.90;;;;;;4884416;29;20052;-79
2024/01/31 04:26:43;;;;;;;1.13;0.38;;;6.40;99.90;;;;;;4881141;29;20037;-79
2024/01/31 04:29:10;;;;;;;1.13;0.43;;;6.40;99.90;;;;;;4876107;29;20039;-79
2024/01/31 04:31:37;;;;;;;1.50;0.32;;;6.40;99.90;;;;;;4884385;29;20055;-79
2024/01/31 04:34:04;;;;;;;1.60;0.20;;;6.40;99.90;;;;;;4899901;29;20490;-79
2024/01/31 04:36:32;;;;;;;5.20;0.55;;;6.40;99.90;;;;;;4868913;29;20433;-79
2024/01/31 04:39:00;;;;;;;1.52;0.40;;;6.40;99.90;;;;;;4884165;29;20466;-79
2024/01/31 04:41:27;;;;;;;0.95;0.30;;;6.40;99.90;;;;;;4899586;29;20059;-79
2024/01/31 04:43:55;;;;;;;1.08;0.50;;;6.40;99.90;;;;;;4884114;29;20068;-79
2024/01/31 04:46:22;;;;;;;2.72;0.30;;;6.40;99.90;;;;;;4883968;29;20048;-79
2024/01/31 04:48:49;;;;;;;2.33;0.70;;;6.40;99.90;;;;;;4899836;29;20128;-79
2024/01/31 04:51:17;;;;;;;1.30;0.40;;;6.40;99.90;;;;;;4880744;29;20083;-79
2024/01/31 04:53:44;;;;;;;1.20;0.38;;;6.40;99.90;;;;;;4881214;29;20059;-79
2024/01/31 04:56:11;;;;;;;1.42;0.47;;;6.40;99.90;;;;;;4900604;29;20450;-79
2024/01/31 04:58:39;;;;;;;0.93;0.30;;;6.40;99.90;;;;;;4901032;29;20048;-79
2024/01/31 05:01:06;;;;;;;0.82;0.35;;;6.40;99.90;;;;;;4884273;29;20056;-79
2024/01/31 05:03:34;;;;;;;1.25;0.40;;;6.40;99.90;;;;;;4900435;29;20056;-78
2024/01/31 05:06:01;;;;;;;3.65;0.50;;;6.40;99.90;;;;;;4886397;29;20060;-78
2024/01/31 05:08:31;;;;;;;1.50;0.35;;;6.40;99.90;;;;;;4883994;29;20052;-78
2024/01/31 05:10:58;;;;;;;1.48;0.60;;;6.40;99.90;;;;;;4883923;29;20044;-78
2024/01/31 05:13:25;;;;;;;3.05;0.43;;;6.40;99.90;;;;;;4900324;29;20409;-78
2024/01/31 05:15:52;;;;;;;1.10;0.38;;;6.40;99.90;;;;;;4898415;29;20628;-78
2024/01/31 05:18:19;;;;;;;1.58;0.20;;;6.30;99.90;;;;;;4883627;29;20060;-78
2024/01/31 05:20:46;;;;;;;1.08;0.30;;;6.40;99.90;;;;;;4866464;29;20053;-78
2024/01/31 05:23:13;;;;;;;1.10;0.40;;;6.30;99.90;;;;;;4872039;29;20040;-78
2024/01/31 05:25:40;;;;;;;3.42;0.50;;;6.40;99.90;;;;;;4898846;29;20045;-78
2024/01/31 05:28:08;;;;;;;1.25;0.50;;;6.30;99.90;;;;;;4883422;29;20462;-78
2024/01/31 05:30:35;;;;;;;3.08;0.50;;;6.30;99.90;;;;;;4898924;29;20045;-78
2024/01/31 05:33:02;;;;;;;1.70;0.68;;;6.30;99.90;;;;;;4880429;29;20440;-77
2024/01/31 05:35:29;;;;;;;3.90;0.50;;;6.30;99.90;;;;;;4898897;29;20044;-78
2024/01/31 05:37:56;;;;;;;2.35;0.93;;;6.30;99.90;;;;;;4898573;29;20044;-78
2024/01/31 05:40:23;;;;;;;2.35;0.50;;;6.30;99.90;;;;;;4898495;29;20043;-79
2024/01/31 05:42:50;;;;;;;2.78;0.90;;;6.30;99.90;;;;;;4882875;29;20092;-79
2024/01/31 05:45:20;;;;;;;1.33;0.40;;;6.30;99.90;;;;;;4883184;29;20041;-78
2024/01/31 05:47:47;;;;;;;3.40;0.40;;;6.30;99.90;;;;;;4882927;29;20052;-78
2024/01/31 05:50:14;;;;;;;0.50;0.20;;;6.30;99.90;;;;;;4898551;29;20116;-79
2024/01/31 05:52:41;;;;;;;1.45;0.40;;;6.30;99.90;;;;;;4899548;29;20413;-79
2024/01/31 05:55:14;;;;;;;0.60;0.25;;;6.30;99.90;;;;;;4898507;29;20100;-79
2024/01/31 05:57:41;;;;;;;1.92;0.40;;;6.30;99.90;;;;;;4882870;29;20070;-78
2024/01/31 06:00:10;;;;;;;1.00;0.30;;;6.40;99.90;;;;;;4898256;29;20045;-78
2024/01/31 06:02:40;;;;;;;1.17;0.30;;;6.40;99.90;;;;;;4900964;29;20060;-79
2024/01/31 06:05:07;;;;;;;1.10;0.40;;;6.40;99.90;;;;;;4882645;29;20517;-78
2024/01/31 06:07:34;;;;;;;2.42;0.38;;;6.30;99.90;;;;;;4898116;29;20532;-78
2024/01/31 06:10:03;;;;;;;1.92;0.60;;;6.30;99.90;;;;;;4897951;29;20071;-79
2024/01/31 06:12:30;;;;;;;1.50;0.40;;;6.30;99.90;;;;;;4897997;29;20036;-78
2024/01/31 06:14:57;;;;;;;2.15;0.50;;;6.30;99.90;;;;;;4897913;29;20049;-78
2024/01/31 06:17:24;;;;;;;4.68;0.50;;;6.30;99.90;;;;;;4882540;29;20401;-79
2024/01/31 06:19:51;;;;;;;1.98;0.57;;;6.30;99.90;;;;;;4898001;29;20033;-78
2024/01/31 06:22:18;;;;;;;1.48;0.45;;;6.40;99.90;;;;;;4882197;29;20569;-79
2024/01/31 06:24:45;;;;;;;1.52;0.35;;;6.40;99.90;;;;;;4897807;29;20055;-78
2024/01/31 06:27:14;;;;;;;1.38;0.40;;;6.40;99.90;;;;;;4897467;29;20510;-78
2024/01/31 06:29:41;;;;;;;1.02;0.60;;;6.40;99.90;;;;;;4897101;29;20036;-78
2024/01/31 06:32:09;;;;;;;1.83;0.60;;;6.40;99.90;;;;;;4898873;29;20064;-78
2024/01/31 06:34:36;;;;;;;1.98;0.40;;;6.40;99.90;;;;;;4897766;29;20520;-78
2024/01/31 06:37:04;;;;;;;1.48;0.30;;;6.30;99.90;;;;;;4897692;29;20068;-78
2024/01/31 06:39:31;;;;;;;1.23;0.43;;;6.40;99.90;;;;;;4897552;29;20120;-78
2024/01/31 06:41:58;;;;;;;1.00;0.32;;;6.40;99.90;;;;;;4897647;29;20522;-78
2024/01/31 06:44:25;;;;;;;2.00;0.38;;;6.30;99.90;;;;;;4878730;29;20116;-78
2024/01/31 06:46:52;;;;;;;0.73;0.55;;;6.40;99.90;;;;;;4881834;29;20045;-79
2024/01/31 06:49:19;;;;;;;1.15;0.47;;;6.40;99.90;;;;;;4866715;29;20052;-78
2024/01/31 06:51:46;;;;;;;1.25;0.40;;;6.40;99.90;;;;;;4897614;29;20047;-78
2024/01/31 06:54:14;;;;;;;1.40;0.30;;;6.40;99.90;;;;;;4879228;29;20106;-78
2024/01/31 06:56:41;;;;;;;1.30;0.47;;;6.40;99.90;;;;;;4879111;29;20045;-78
2024/01/31 06:59:08;;;;;;;2.28;0.40;;;6.40;99.90;;;;;;4881312;29;20049;-78
2024/01/31 07:01:36;;;;;;;2.30;0.60;;;6.40;99.90;;;;;;4881884;29;20132;-78
2024/01/31 07:04:03;;;;;;;3.42;0.90;;;6.40;99.90;;;;;;4897197;29;20049;-78
2024/01/31 07:06:30;;;;;;;3.63;0.90;;;6.40;99.90;;;;;;4896973;29;20064;-78
2024/01/31 07:08:57;;;;;;;2.42;1.10;;;6.40;99.90;;;;;;4896814;29;20832;-79
2024/01/31 07:11:24;;;;;;;3.45;1.40;;;6.40;99.90;;;;;;4881723;29;20052;-79
2024/01/31 07:13:51;;;;;;;3.08;1.10;;;6.40;99.90;;;;;;4898235;29;20044;-79
2024/01/31 07:16:18;;;;;;;4.43;1.95;;;6.40;99.90;;;;;;4898163;29;20076;-79
2024/01/31 07:18:45;;;;;;;3.85;2.35;;;6.40;99.90;;;;;;4880741;29;20044;-78
2024/01/31 07:21:25;;;;;;;5.35;2.22;;;6.40;99.90;;;;;;4897141;29;20091;-79
2024/01/31 07:23:52;;;;;;;2.47;1.17;;;6.40;99.90;;;;;;4896691;29;20049;-79
2024/01/31 07:26:24;;;;;;;2.72;1.48;;;6.40;99.90;;;;;;4896716;29;20055;-79
2024/01/31 07:28:51;;;;;;;3.22;1.25;;;6.40;99.90;;;;;;4896754;29;20549;-79
2024/01/31 07:31:18;;;;;;;2.60;1.02;;;6.50;99.90;;;;;;4891578;29;20044;-79
2024/01/31 07:33:46;;;;;;;2.80;1.20;;;6.50;99.90;;;;;;4881192;29;20041;-79
2024/01/31 07:36:13;;;;;;;4.10;1.52;;;6.50;99.90;;;;;;4896655;29;20079;-79
2024/01/31 07:38:44;;;;;;;3.38;1.60;;;6.50;99.90;;;;;;4896739;29;20048;-79
2024/01/31 07:41:12;;;;;;;4.03;2.28;;;6.50;99.90;;;;;;4904480;29;20044;-79
2024/01/31 07:43:39;;;;;;;5.28;2.33;;;6.50;99.90;;;;;;4887338;29;20076;-79
2024/01/31 07:46:10;;;;;;;5.80;2.22;;;6.50;99.90;;;;;;4887598;29;20056;-79
2024/01/31 07:48:37;;;;;;;6.85;2.30;;;6.50;99.90;;;;;;4903977;29;20076;-78
2024/01/31 07:51:05;;;;;;;5.20;2.00;;;6.40;99.90;;;;;;4904131;29;20045;-79
2024/01/31 07:53:33;;;;;;;4.68;1.90;;;6.50;99.90;;;;;;4904051;29;20486;-78
2024/01/31 07:56:00;;;;;;;4.53;1.80;;;6.50;99.90;;;;;;4902777;29;20045;-78
2024/01/31 07:58:31;;;;;;;3.53;1.80;;;6.40;99.90;;;;;;4887579;29;20052;-78
2024/01/31 08:00:58;;;;;;;3.97;2.15;;;6.40;99.90;;;;;;4887133;29;20063;-79
2024/01/31 08:03:26;;;;;;;3.08;1.40;;;6.50;99.90;;;;;;4903846;29;20127;-79
2024/01/31 08:05:53;;;;;;;3.45;1.65;;;6.50;99.90;;;;;;4903657;29;20044;-79
2024/01/31 08:08:20;;;;;;;3.50;1.95;;;6.50;99.90;;;;;;4902606;29;20051;-79
2024/01/31 08:10:48;;;;;;;4.93;2.30;;;6.50;99.90;;;;;;4902355;29;20532;-80
2024/01/31 08:13:16;;;;;;;5.70;2.30;;;6.50;99.90;;;;;;4886987;29;20409;-79
2024/01/31 08:15:43;;;;;;;4.18;1.73;;;6.50;99.90;;;;;;4902666;29;20055;-79
2024/01/31 08:18:10;;;;;;;4.63;1.63;;;6.50;99.90;;;;;;4902834;29;20041;-79
2024/01/31 08:20:37;;;;;;;4.00;2.10;;;6.50;99.90;;;;;;4887113;29;20457;-79
2024/01/31 08:23:04;;;;;;;2.55;1.48;;;6.50;99.90;;;;;;4868958;29;20059;-77
2024/01/31 08:25:31;;;;;;;2.13;1.10;;;6.50;99.90;;;;;;4900251;29;20045;-78
2024/01/31 08:27:59;;;;;;;3.10;1.50;;;6.50;99.90;;;;;;4903640;29;20048;-78
2024/01/31 08:30:26;;;;;;;2.88;1.63;;;6.60;99.90;;;;;;4903599;29;20044;-79
2024/01/31 08:32:54;;;;;;;3.85;1.58;;;6.60;99.90;;;;;;4886748;29;20539;-78
2024/01/31 08:35:21;;;;;;;5.88;2.50;;;6.60;99.90;;;;;;4902337;29;20401;-78
2024/01/31 08:37:48;;;;;;;3.28;1.90;;;6.60;99.90;;;;;;4868297;29;20152;-78
2024/01/31 08:40:16;;;;;;;3.22;1.55;;;6.60;99.90;;;;;;4884044;29;20037;-79
2024/01/31 08:42:47;;;;;;;4.00;1.52;;;6.60;99.90;;;;;;4893723;29;20135;-78
2024/01/31 08:45:14;;;;;;;3.90;1.50;;;6.70;99.90;;;;;;4902177;29;20047;-78
2024/01/31 08:47:41;;;;;;;2.92;1.30;;;6.70;99.90;;;;;;4902318;29;20092;-77
2024/01/31 08:50:09;;;;;;;2.33;1.00;;;6.70;99.90;;;;;;4903484;29;20048;-78
2024/01/31 08:52:37;;;;;;;2.35;0.93;;;6.70;99.90;;;;;;4898318;29;20086;-78
2024/01/31 08:55:05;;;;;;;2.50;1.20;;;6.70;99.90;;;;;;4899204;29;20191;-78
2024/01/31 08:57:33;;;;;;;2.03;1.00;;;6.80;99.90;;;;;;4899163;29;20394;-78
2024/01/31 09:00:04;;;;;;;3.42;1.27;;;6.80;99.90;;;;;;4900544;29;20132;-79
2024/01/31 09:02:33;;;;;;;3.05;1.10;;;6.80;99.90;;;;;;4899174;29;20081;-79
2024/01/31 09:05:00;;;;;;;3.47;1.27;;;6.80;99.90;;;;;;4883684;29;20048;-78
2024/01/31 09:07:28;;;;;;;2.08;0.95;;;6.80;99.90;;;;;;4899022;29;20442;-78
2024/01/31 09:09:55;;;;;;;2.33;1.10;;;6.90;99.90;;;;;;4899074;29;20049;-78
2024/01/31 09:12:22;;;;;;;3.10;1.00;;;6.90;99.90;;;;;;4900265;29;20135;-77
2024/01/31 09:14:49;;;;;;;2.72;1.27;;;6.90;99.90;;;;;;4899160;29;20104;-78
2024/01/31 09:17:16;;;;;;;1.85;0.90;;;7.00;99.90;;;;;;4898943;29;20100;-78
2024/01/31 09:19:43;;;;;;;2.13;0.80;;;7.00;99.90;;;;;;4898787;29;20052;-78
2024/01/31 09:22:13;;;;;;;2.15;0.80;;;7.00;99.90;;;;;;4883959;29;20056;-78
2024/01/31 09:24:41;;;;;;;1.92;0.68;;;7.10;99.90;;;;;;4899919;29;20049;-78
2024/01/31 09:27:08;;;;;;;2.70;0.90;;;7.10;99.90;;;;;;4899836;29;20104;-77
2024/01/31 09:29:35;;;;;;;2.42;1.10;;;7.20;99.90;;;;;;4899669;29;20037;-78
2024/01/31 09:32:02;;;;;;;2.35;1.02;;;7.20;99.90;;;;;;4883491;29;20055;-79
2024/01/31 09:34:30;;;;;;;2.58;1.23;;;7.20;99.90;;;;;;4898491;29;20045;-78
2024/01/31 09:36:57;;;;;;;1.75;0.85;;;7.30;99.90;;;;;;4899098;29;20077;-78
2024/01/31 09:39:25;;;;;;;2.38;0.90;;;7.30;99.90;;;;;;4891901;29;20116;-79
2024/01/31 09:41:53;;;;;;;3.83;1.40;;;7.30;99.90;;;;;;4896509;29;20082;-78
2024/01/31 09:44:21;;;;;;;2.95;1.10;;;7.40;99.90;;;;;;4883172;29;20071;-78
2024/01/31 09:46:51;;;;;;;4.50;1.13;;;7.40;99.90;;;;;;4899607;29;20045;-77
2024/01/31 09:49:19;;;;;;;2.58;1.20;;;7.50;99.90;;;;;;4899633;29;20167;-79
2024/01/31 09:51:49;;;;;;;3.13;1.45;;;7.50;99.90;;;;;;4898433;29;20143;-78
2024/01/31 09:54:17;;;;;;;3.88;1.48;;;7.60;99.90;;;;;;4898430;29;20048;-81
2024/01/31 09:56:44;;;;;;;4.05;2.38;;;7.70;99.90;;;;;;4898427;29;20045;-81
2024/01/31 09:59:11;;;;;;;5.97;3.08;;;7.70;99.90;;;;;;4867335;29;20099;-80
2024/01/31 10:01:39;;;;;;;4.82;2.10;;;7.70;99.90;;;;;;4882313;29;20119;-81
2024/01/31 10:04:07;;;;;;;4.53;2.83;;;7.70;99.90;;;;;;4897860;29;20043;-82
2024/01/31 10:06:35;;;;;;;4.93;2.97;;;7.80;99.90;;;;;;4897542;29;20055;-82
2024/01/31 10:09:04;;;;;;;4.90;2.28;;;7.70;99.90;;;;;;4900451;29;20052;-81
2024/01/31 10:11:31;;;;;;;7.03;2.65;;;7.80;99.90;;;;;;4882765;29;20049;-80
2024/01/31 10:13:58;;;;;;;4.45;2.58;;;7.80;99.90;;;;;;4897612;29;20037;-81
2024/01/31 10:16:26;;;;;;;7.75;4.10;;;7.90;99.90;;;;;;4882649;29;20063;-80
2024/01/31 10:18:53;;;;;;;6.78;4.03;;;7.90;99.90;;;;;;4879505;29;20410;-80
2024/01/31 10:21:21;;;;;;;7.47;4.18;;;7.90;99.90;;;;;;4898080;29;20435;-81
2024/01/31 10:23:58;;;;;;;6.78;3.85;;;7.90;99.90;;;;;;4897631;29;20049;-80
2024/01/31 10:26:29;;;;;;;5.43;2.83;;;7.90;99.90;;;;;;4898902;29;20773;-80
2024/01/31 10:28:58;;;;;;;8.75;3.60;;;7.80;99.90;;;;;;4882079;29;20056;-81
2024/01/31 10:31:37;;;;;;;8.02;4.78;;;7.90;99.90;;;;;;4898668;29;20067;-80
2024/01/31 10:34:08;;;;;;;8.70;4.75;;;7.90;99.90;;;;;;4898774;29;20044;-80
2024/01/31 10:36:40;;;;;;;8.27;3.50;;;7.80;99.90;;;;;;4897446;29;20040;-83
2024/01/31 10:39:32;;;;;;;10.40;4.30;;;7.90;99.90;;;;;;4884963;29;20055;-80
2024/01/31 10:42:01;;;;;;;10.73;6.03;;;7.80;99.90;;;;;;4881889;29;20056;-80
2024/01/31 10:44:28;;;;;;;9.52;4.88;;;7.80;99.90;;;;;;4881997;29;20051;-80
2024/01/31 10:46:55;;;;;;;10.48;5.10;;;7.80;99.90;;;;;;4882064;29;20044;-80
2024/01/31 10:49:23;;;;;;;13.48;7.60;;;7.80;99.90;;;;;;4897365;29;20041;-80
2024/01/31 10:51:53;;;;;;;12.77;6.40;;;7.80;99.90;;;;;;4881961;29;20076;-80
2024/01/31 10:54:25;;;;;;;12.48;7.10;;;7.80;99.90;;;;;;4897108;29;20052;-80
2024/01/31 10:56:54;;;;;;;11.95;6.32;;;7.80;99.90;;;;;;4881420;29;20057;-81
2024/01/31 10:59:21;;;;;;;16.77;7.68;;;7.80;99.90;;;;;;4897176;29;20104;-81
2024/01/31 11:01:54;;;;;;;14.00;7.07;;;7.90;99.90;;;;;;4882035;29;20135;-79
2024/01/31 11:04:22;;;;;;;14.07;6.80;;;7.90;99.90;;;;;;4878797;29;20463;-78
2024/01/31 11:06:50;;;;;;;17.73;9.27;;;7.90;99.90;;;;;;4891457;29;20040;-78
2024/01/31 11:09:20;;;;;;;15.45;8.15;;;7.90;99.90;;;;;;4881115;29;20121;-80
2024/01/31 11:12:10;;;;;;;16.10;9.07;;;8.00;99.90;;;;;;4896199;29;20056;-79
2024/01/31 11:14:40;;;;;;;17.00;8.00;;;8.00;99.90;;;;;;4882899;29;20075;-78
2024/01/31 11:17:14;;;;;;;16.20;8.82;;;8.00;99.90;;;;;;4898054;29;20048;-78
2024/01/31 11:19:49;;;;;;;20.25;11.73;;;8.10;99.90;;;;;;4878178;29;20052;-79
2024/01/31 11:22:17;;;;;;;20.13;10.38;;;8.10;99.90;;;;;;4879481;29;20048;-79
2024/01/31 11:24:48;;;;;;;21.73;11.27;;;8.10;99.90;;;;;;4862867;29;20052;-79
2024/01/31 11:27:17;;;;;;;20.63;11.15;;;8.10;99.90;;;;;;4890131;29;20056;-79
2024/01/31 11:29:46;;;;;;;20.13;10.07;;;8.10;99.90;;;;;;4896698;29;20112;-79
2024/01/31 11:32:16;;;;;;;21.92;10.00;;;8.10;99.90;;;;;;4896892;29;20116;-79
2024/01/31 11:34:43;;;;;;;20.20;10.27;;;8.20;99.90;;;;;;4896649;29;20466;-79
2024/01/31 11:37:11;;;;;;;20.90;10.70;;;8.20;99.90;;;;;;4881278;29;20049;-78
2024/01/31 11:39:38;;;;;;;21.52;9.75;;;8.20;99.90;;;;;;4896626;29;20112;-80
2024/01/31 11:42:08;;;;;;;17.90;9.95;;;8.30;99.90;;;;;;4880993;29;20076;-79
2024/01/31 11:44:37;;;;;;;;;;;8.30;99.90;;;;;;4896911;29;20048;-79
2024/01/31 11:47:04;;;;;;;26.92;10.50;;;8.30;99.90;;;;;;4896284;29;19934;-79
2024/01/31 11:49:31;;;;;;;20.10;9.20;;;8.30;99.90;;;;;;4897818;29;20044;-79
2024/01/31 11:51:58;;;;;;;17.98;8.88;;;8.40;99.90;;;;;;4881260;29;20048;-78
2024/01/31 11:54:27;;;;;;;18.52;9.38;;;8.40;99.90;;;;;;4881085;29;20048;-79
2024/01/31 11:56:55;;;;;;;17.95;8.73;;;8.40;99.90;;;;;;4897695;29;20139;-79
2024/01/31 11:59:22;;;;;;;18.65;8.80;;;8.40;99.90;;;;;;4877794;29;20041;-78
2024/01/31 12:01:49;;;;;;;20.20;10.32;;;8.40;99.90;;;;;;4862527;29;20088;-78
2024/01/31 12:04:16;;;;;;;21.60;11.60;;;8.40;99.90;;;;;;4884617;29;20072;-78
2024/01/31 12:06:44;;;;;;;20.40;10.77;;;8.40;99.90;;;;;;4897994;29;20550;-78
2024/01/31 12:09:13;;;;;;;19.85;9.20;;;8.30;99.90;;;;;;4898056;29;20127;-78
2024/01/31 12:11:40;;;;;;;16.42;8.25;;;8.30;99.90;;;;;;4896521;29;20116;-78
2024/01/31 12:14:08;;;;;;;17.98;9.35;;;8.30;99.90;;;;;;4898124;29;20041;-79
2024/01/31 12:16:40;;;;;;;19.83;10.13;;;8.30;99.90;;;;;;4896568;29;20048;-78
2024/01/31 12:19:07;;;;;;;17.45;9.10;;;8.30;99.90;;;;;;4898213;29;20048;-78
2024/01/31 12:21:44;;;;;;;21.20;11.07;;;8.30;99.90;;;;;;4897033;29;20045;-80
2024/01/31 12:24:11;;;;;;;21.50;10.63;;;8.40;99.90;;;;;;4896603;29;20395;-80
2024/01/31 12:26:38;;;;;;;18.35;10.60;;;8.30;99.90;;;;;;4898758;29;20048;-78
2024/01/31 12:29:05;;;;;;;18.13;10.23;;;8.30;99.90;;;;;;4900874;29;20032;-77
2024/01/31 12:31:32;;;;;;;19.13;10.20;;;8.30;99.90;;;;;;4899645;29;20044;-78
2024/01/31 12:34:00;;;;;;;20.90;10.95;;;8.30;99.90;;;;;;4899624;29;20044;-78
2024/01/31 12:36:27;;;;;;;19.05;10.10;;;8.30;99.90;;;;;;4884102;29;20053;-78
2024/01/31 12:38:54;;;;;;;16.35;9.20;;;8.20;99.90;;;;;;4900750;29;20044;-77
2024/01/31 12:41:22;;;;;;;15.13;10.40;;;8.20;99.90;;;;;;4884100;29;20151;-78
2024/01/31 12:43:49;;;;;;;15.35;9.75;;;8.20;99.90;;;;;;4884067;29;20136;-77
2024/01/31 12:46:17;;;;;;;14.63;8.90;;;8.20;99.90;;;;;;4899279;29;20143;-78
2024/01/31 12:48:44;;;;;;;16.20;9.35;;;8.10;99.90;;;;;;4883955;29;20056;-82
2024/01/31 12:51:11;;;;;;;14.60;9.73;;;8.10;99.90;;;;;;4899508;29;20048;-78
2024/01/31 12:53:38;;;;;;;15.50;9.57;;;8.10;99.90;;;;;;4899158;29;20045;-79
2024/01/31 12:56:06;;;;;;;12.88;9.75;;;8.10;99.90;;;;;;4880525;29;20108;-79
2024/01/31 12:58:33;;;;;;;13.80;9.30;;;8.00;99.90;;;;;;4883837;29;20494;-79